sensor_id;sensor_type;location;lat;lon;timestamp;P1;durP1;ratioP1;P2;durP2;ratioP2
4391;SDS011;2210;51.938;8.488;2023-01-15T00:00:57;1.53;;;0.80;;
4391;SDS011;2210;51.938;8.488;2023-01-15T00:04:57;0.90;;;0.70;;
4391;SDS011;2210;51.938;8.488;2023-01-15T00:09:01;1.40;;;0.77;;
4391;SDS011;2210;51.938;8.488;2023-01-15T00:13:02;3.43;;;0.70;;
4391;SDS011;2210;51.938;8.488;2023-01-15T00:17:02;4.68;;;0.77;;
4391;SDS011;2210;51.938;8.488;2023-01-15T00:21:04;1.50;;;0.70;;
4391;SDS011;2210;51.938;8.488;2023-01-15T00:25:05;1.07;;;0.70;;
4391;SDS011;2210;51.938;8.488;2023-01-15T00:29:31;1.10;;;0.60;;
4391;SDS011;2210;51.938;8.488;2023-01-15T00:33:31;2.20;;;0.70;;
4391;SDS011;2210;51.938;8.488;2023-01-15T00:37:31;3.05;;;1.00;;
4391;SDS011;2210;51.938;8.488;2023-01-15T00:41:32;0.85;;;0.60;;
4391;SDS011;2210;51.938;8.488;2023-01-15T00:45:39;0.90;;;0.50;;
4391;SDS011;2210;51.938;8.488;2023-01-15T00:49:43;0.73;;;0.60;;
4391;SDS011;2210;51.938;8.488;2023-01-15T00:53:46;1.00;;;0.50;;
4391;SDS011;2210;51.938;8.488;2023-01-15T00:57:49;0.50;;;0.50;;
4391;SDS011;2210;51.938;8.488;2023-01-15T01:01:53;1.27;;;0.77;;
4391;SDS011;2210;51.938;8.488;2023-01-15T01:05:53;1.63;;;0.40;;
4391;SDS011;2210;51.938;8.488;2023-01-15T01:09:59;1.80;;;0.60;;
4391;SDS011;2210;51.938;8.488;2023-01-15T01:14:02;1.58;;;0.45;;
4391;SDS011;2210;51.938;8.488;2023-01-15T01:18:03;0.70;;;0.70;;
4391;SDS011;2210;51.938;8.488;2023-01-15T01:22:04;1.03;;;0.70;;
4391;SDS011;2210;51.938;8.488;2023-01-15T01:26:04;1.23;;;0.57;;
4391;SDS011;2210;51.938;8.488;2023-01-15T01:30:08;0.60;;;0.60;;
4391;SDS011;2210;51.938;8.488;2023-01-15T01:34:14;1.70;;;1.47;;
4391;SDS011;2210;51.938;8.488;2023-01-15T01:38:17;2.10;;;1.13;;
4391;SDS011;2210;51.938;8.488;2023-01-15T01:42:24;1.83;;;0.60;;
4391;SDS011;2210;51.938;8.488;2023-01-15T01:46:25;0.97;;;0.80;;
4391;SDS011;2210;51.938;8.488;2023-01-15T01:50:27;0.90;;;0.50;;
4391;SDS011;2210;51.938;8.488;2023-01-15T01:54:28;0.70;;;0.50;;
4391;SDS011;2210;51.938;8.488;2023-01-15T01:58:36;0.97;;;0.80;;
4391;SDS011;2210;51.938;8.488;2023-01-15T02:02:37;1.20;;;0.53;;
4391;SDS011;2210;51.938;8.488;2023-01-15T02:06:39;0.93;;;0.60;;
4391;SDS011;2210;51.938;8.488;2023-01-15T02:10:41;2.67;;;0.97;;
4391;SDS011;2210;51.938;8.488;2023-01-15T02:14:45;0.50;;;0.50;;
4391;SDS011;2210;51.938;8.488;2023-01-15T02:18:57;0.50;;;0.40;;
4391;SDS011;2210;51.938;8.488;2023-01-15T02:27:48;0.60;;;0.60;;
4391;SDS011;2210;51.938;8.488;2023-01-15T02:31:54;1.17;;;0.70;;
4391;SDS011;2210;51.938;8.488;2023-01-15T02:36:04;2.13;;;0.80;;
4391;SDS011;2210;51.938;8.488;2023-01-15T02:40:10;1.10;;;0.80;;
4391;SDS011;2210;51.938;8.488;2023-01-15T02:44:13;1.27;;;0.80;;
4391;SDS011;2210;51.938;8.488;2023-01-15T02:48:17;2.37;;;0.90;;
4391;SDS011;2210;51.938;8.488;2023-01-15T02:52:36;1.73;;;1.00;;
4391;SDS011;2210;51.938;8.488;2023-01-15T02:56:41;0.93;;;0.80;;
4391;SDS011;2210;51.938;8.488;2023-01-15T03:00:46;1.03;;;0.80;;
4391;SDS011;2210;51.938;8.488;2023-01-15T03:04:52;2.03;;;1.13;;
4391;SDS011;2210;51.938;8.488;2023-01-15T03:09:05;0.90;;;0.90;;
4391;SDS011;2210;51.938;8.488;2023-01-15T03:13:14;1.23;;;1.20;;
4391;SDS011;2210;51.938;8.488;2023-01-15T03:17:21;2.43;;;1.80;;
4391;SDS011;2210;51.938;8.488;2023-01-15T03:21:37;1.93;;;1.30;;
4391;SDS011;2210;51.938;8.488;2023-01-15T03:25:44;5.43;;;1.70;;
4391;SDS011;2210;51.938;8.488;2023-01-15T03:29:51;3.83;;;1.20;;
4391;SDS011;2210;51.938;8.488;2023-01-15T03:34:03;2.00;;;0.83;;
4391;SDS011;2210;51.938;8.488;2023-01-15T03:38:10;5.67;;;2.23;;
4391;SDS011;2210;51.938;8.488;2023-01-15T03:51:28;10.50;;;5.83;;
4391;SDS011;2210;51.938;8.488;2023-01-15T03:55:39;4.87;;;2.73;;
4391;SDS011;2210;51.938;8.488;2023-01-15T03:59:47;6.40;;;3.40;;
4391;SDS011;2210;51.938;8.488;2023-01-15T04:04:02;3.10;;;1.80;;
4391;SDS011;2210;51.938;8.488;2023-01-15T04:08:04;1.73;;;1.37;;
4391;SDS011;2210;51.938;8.488;2023-01-15T04:12:06;4.77;;;1.93;;
4391;SDS011;2210;51.938;8.488;2023-01-15T04:16:16;2.80;;;1.47;;
4391;SDS011;2210;51.938;8.488;2023-01-15T04:20:22;2.90;;;1.50;;
4391;SDS011;2210;51.938;8.488;2023-01-15T04:24:23;2.75;;;0.80;;
4391;SDS011;2210;51.938;8.488;2023-01-15T04:28:23;4.60;;;1.33;;
4391;SDS011;2210;51.938;8.488;2023-01-15T04:32:26;1.40;;;1.00;;
4391;SDS011;2210;51.938;8.488;2023-01-15T04:36:27;2.03;;;1.53;;
4391;SDS011;2210;51.938;8.488;2023-01-15T04:40:28;2.60;;;1.00;;
4391;SDS011;2210;51.938;8.488;2023-01-15T04:44:54;1.80;;;1.13;;
4391;SDS011;2210;51.938;8.488;2023-01-15T04:48:54;3.03;;;1.57;;
4391;SDS011;2210;51.938;8.488;2023-01-15T04:52:55;2.10;;;1.20;;
4391;SDS011;2210;51.938;8.488;2023-01-15T04:56:58;3.70;;;1.40;;
4391;SDS011;2210;51.938;8.488;2023-01-15T05:00:58;1.07;;;0.90;;
4391;SDS011;2210;51.938;8.488;2023-01-15T05:04:59;2.27;;;0.97;;
4391;SDS011;2210;51.938;8.488;2023-01-15T05:09:03;1.03;;;0.97;;
4391;SDS011;2210;51.938;8.488;2023-01-15T05:13:16;1.90;;;1.23;;
4391;SDS011;2210;51.938;8.488;2023-01-15T05:17:16;1.53;;;0.90;;
4391;SDS011;2210;51.938;8.488;2023-01-15T05:21:21;1.23;;;1.00;;
4391;SDS011;2210;51.938;8.488;2023-01-15T05:25:23;3.23;;;1.07;;
4391;SDS011;2210;51.938;8.488;2023-01-15T05:29:32;5.28;;;0.98;;
4391;SDS011;2210;51.938;8.488;2023-01-15T05:33:33;3.67;;;0.90;;
4391;SDS011;2210;51.938;8.488;2023-01-15T05:37:33;0.70;;;0.70;;
4391;SDS011;2210;51.938;8.488;2023-01-15T05:41:34;2.53;;;1.35;;
4391;SDS011;2210;51.938;8.488;2023-01-15T05:45:50;4.33;;;1.10;;
4391;SDS011;2210;51.938;8.488;2023-01-15T05:49:50;1.73;;;0.90;;
4391;SDS011;2210;51.938;8.488;2023-01-15T05:53:56;2.30;;;1.10;;
4391;SDS011;2210;51.938;8.488;2023-01-15T05:57:57;2.90;;;1.23;;
4391;SDS011;2210;51.938;8.488;2023-01-15T06:02:03;4.30;;;1.20;;
4391;SDS011;2210;51.938;8.488;2023-01-15T06:06:09;9.30;;;4.93;;
4391;SDS011;2210;51.938;8.488;2023-01-15T06:10:12;8.13;;;3.70;;
4391;SDS011;2210;51.938;8.488;2023-01-15T06:14:16;7.13;;;4.77;;
4391;SDS011;2210;51.938;8.488;2023-01-15T06:18:17;5.53;;;3.10;;
4391;SDS011;2210;51.938;8.488;2023-01-15T06:22:26;2.08;;;1.88;;
4391;SDS011;2210;51.938;8.488;2023-01-15T06:26:32;5.13;;;2.67;;
4391;SDS011;2210;51.938;8.488;2023-01-15T06:30:32;3.00;;;1.10;;
4391;SDS011;2210;51.938;8.488;2023-01-15T06:34:33;8.50;;;4.60;;
4391;SDS011;2210;51.938;8.488;2023-01-15T06:38:35;16.10;;;6.90;;
4391;SDS011;2210;51.938;8.488;2023-01-15T06:42:39;8.30;;;3.90;;
4391;SDS011;2210;51.938;8.488;2023-01-15T06:47:10;4.67;;;2.80;;
4391;SDS011;2210;51.938;8.488;2023-01-15T06:51:23;4.10;;;1.50;;
4391;SDS011;2210;51.938;8.488;2023-01-15T06:55:27;6.50;;;1.73;;
4391;SDS011;2210;51.938;8.488;2023-01-15T06:59:30;3.57;;;1.50;;
4391;SDS011;2210;51.938;8.488;2023-01-15T07:03:31;3.50;;;1.50;;
4391;SDS011;2210;51.938;8.488;2023-01-15T07:07:34;7.30;;;2.00;;
4391;SDS011;2210;51.938;8.488;2023-01-15T07:11:34;2.67;;;1.30;;
4391;SDS011;2210;51.938;8.488;2023-01-15T07:15:38;3.10;;;1.47;;
4391;SDS011;2210;51.938;8.488;2023-01-15T07:19:45;5.33;;;1.50;;
4391;SDS011;2210;51.938;8.488;2023-01-15T07:23:48;2.20;;;1.53;;
4391;SDS011;2210;51.938;8.488;2023-01-15T07:27:49;2.33;;;1.57;;
4391;SDS011;2210;51.938;8.488;2023-01-15T07:31:49;5.10;;;1.67;;
4391;SDS011;2210;51.938;8.488;2023-01-15T07:35:50;3.13;;;1.90;;
4391;SDS011;2210;51.938;8.488;2023-01-15T07:39:56;16.50;;;8.20;;
4391;SDS011;2210;51.938;8.488;2023-01-15T07:43:57;18.40;;;9.50;;
4391;SDS011;2210;51.938;8.488;2023-01-15T07:48:15;6.87;;;4.30;;
4391;SDS011;2210;51.938;8.488;2023-01-15T07:52:34;4.43;;;2.93;;
4391;SDS011;2210;51.938;8.488;2023-01-15T07:56:40;3.90;;;1.80;;
4391;SDS011;2210;51.938;8.488;2023-01-15T08:00:41;6.90;;;2.43;;
4391;SDS011;2210;51.938;8.488;2023-01-15T08:04:53;5.27;;;1.37;;
4391;SDS011;2210;51.938;8.488;2023-01-15T08:08:57;7.67;;;2.20;;
4391;SDS011;2210;51.938;8.488;2023-01-15T08:13:00;5.70;;;1.83;;
4391;SDS011;2210;51.938;8.488;2023-01-15T08:17:19;4.97;;;1.70;;
4391;SDS011;2210;51.938;8.488;2023-01-15T08:21:25;5.53;;;1.00;;
4391;SDS011;2210;51.938;8.488;2023-01-15T08:25:29;2.00;;;1.17;;
4391;SDS011;2210;51.938;8.488;2023-01-15T08:29:35;3.07;;;1.10;;
4391;SDS011;2210;51.938;8.488;2023-01-15T08:33:35;1.10;;;1.00;;
4391;SDS011;2210;51.938;8.488;2023-01-15T08:37:35;4.03;;;1.03;;
4391;SDS011;2210;51.938;8.488;2023-01-15T08:41:38;1.77;;;0.87;;
4391;SDS011;2210;51.938;8.488;2023-01-15T08:45:39;3.10;;;0.70;;
4391;SDS011;2210;51.938;8.488;2023-01-15T08:49:39;8.00;;;3.40;;
4391;SDS011;2210;51.938;8.488;2023-01-15T08:53:39;6.87;;;3.60;;
4391;SDS011;2210;51.938;8.488;2023-01-15T08:57:43;9.33;;;3.93;;
4391;SDS011;2210;51.938;8.488;2023-01-15T09:01:46;2.03;;;1.77;;
4391;SDS011;2210;51.938;8.488;2023-01-15T09:05:47;2.13;;;1.43;;
4391;SDS011;2210;51.938;8.488;2023-01-15T09:09:47;5.90;;;1.87;;
4391;SDS011;2210;51.938;8.488;2023-01-15T09:13:47;3.75;;;2.53;;
4391;SDS011;2210;51.938;8.488;2023-01-15T09:17:54;7.50;;;3.77;;
4391;SDS011;2210;51.938;8.488;2023-01-15T09:21:54;3.80;;;2.47;;
4391;SDS011;2210;51.938;8.488;2023-01-15T09:25:56;6.47;;;2.80;;
4391;SDS011;2210;51.938;8.488;2023-01-15T09:29:58;3.50;;;2.63;;
4391;SDS011;2210;51.938;8.488;2023-01-15T09:33:59;3.03;;;1.50;;
4391;SDS011;2210;51.938;8.488;2023-01-15T09:38:02;2.10;;;0.90;;
4391;SDS011;2210;51.938;8.488;2023-01-15T09:46:55;2.10;;;1.07;;
4391;SDS011;2210;51.938;8.488;2023-01-15T09:51:37;2.27;;;1.20;;
4391;SDS011;2210;51.938;8.488;2023-01-15T09:55:48;5.47;;;1.37;;
4391;SDS011;2210;51.938;8.488;2023-01-15T09:59:54;6.57;;;1.33;;
4391;SDS011;2210;51.938;8.488;2023-01-15T10:04:26;1.70;;;1.07;;
4391;SDS011;2210;51.938;8.488;2023-01-15T10:08:43;5.67;;;1.37;;
4391;SDS011;2210;51.938;8.488;2023-01-15T10:12:45;22.83;;;10.77;;
4391;SDS011;2210;51.938;8.488;2023-01-15T10:16:47;33.53;;;13.63;;
4391;SDS011;2210;51.938;8.488;2023-01-15T10:20:50;6.93;;;4.00;;
4391;SDS011;2210;51.938;8.488;2023-01-15T10:25:08;3.07;;;2.20;;
4391;SDS011;2210;51.938;8.488;2023-01-15T10:29:24;5.53;;;1.93;;
4391;SDS011;2210;51.938;8.488;2023-01-15T10:42:46;5.70;;;1.50;;
4391;SDS011;2210;51.938;8.488;2023-01-15T10:47:06;1.53;;;1.10;;
4391;SDS011;2210;51.938;8.488;2023-01-15T10:51:26;3.13;;;1.10;;
4391;SDS011;2210;51.938;8.488;2023-01-15T11:00:03;1.57;;;1.00;;
4391;SDS011;2210;51.938;8.488;2023-01-15T11:04:04;3.33;;;1.10;;
4391;SDS011;2210;51.938;8.488;2023-01-15T11:08:18;3.20;;;1.33;;
4391;SDS011;2210;51.938;8.488;2023-01-15T11:12:29;3.80;;;1.77;;
4391;SDS011;2210;51.938;8.488;2023-01-15T11:16:53;3.63;;;1.40;;
4391;SDS011;2210;51.938;8.488;2023-01-15T11:21:12;4.03;;;0.90;;
4391;SDS011;2210;51.938;8.488;2023-01-15T11:25:29;6.47;;;0.80;;
4391;SDS011;2210;51.938;8.488;2023-01-15T11:29:31;3.17;;;1.10;;
4391;SDS011;2210;51.938;8.488;2023-01-15T11:33:36;4.10;;;1.10;;
4391;SDS011;2210;51.938;8.488;2023-01-15T11:37:36;5.13;;;1.10;;
4391;SDS011;2210;51.938;8.488;2023-01-15T11:41:42;2.70;;;1.45;;
4391;SDS011;2210;51.938;8.488;2023-01-15T11:46:01;5.57;;;1.10;;
4391;SDS011;2210;51.938;8.488;2023-01-15T11:50:26;2.67;;;0.80;;
4391;SDS011;2210;51.938;8.488;2023-01-15T11:54:46;1.90;;;1.10;;
4391;SDS011;2210;51.938;8.488;2023-01-15T11:58:51;2.27;;;1.13;;
4391;SDS011;2210;51.938;8.488;2023-01-15T12:02:56;3.13;;;1.30;;
4391;SDS011;2210;51.938;8.488;2023-01-15T12:07:03;5.30;;;1.23;;
4391;SDS011;2210;51.938;8.488;2023-01-15T12:11:14;5.00;;;0.93;;
4391;SDS011;2210;51.938;8.488;2023-01-15T12:24:34;2.30;;;1.13;;
4391;SDS011;2210;51.938;8.488;2023-01-15T12:28:47;3.87;;;1.10;;
4391;SDS011;2210;51.938;8.488;2023-01-15T12:33:04;3.33;;;1.13;;
4391;SDS011;2210;51.938;8.488;2023-01-15T12:37:14;3.47;;;1.00;;
4391;SDS011;2210;51.938;8.488;2023-01-15T12:41:22;3.60;;;1.33;;
4391;SDS011;2210;51.938;8.488;2023-01-15T12:45:47;2.80;;;0.90;;
4391;SDS011;2210;51.938;8.488;2023-01-15T12:54:20;2.00;;;1.00;;
4391;SDS011;2210;51.938;8.488;2023-01-15T12:58:45;5.20;;;1.17;;
4391;SDS011;2210;51.938;8.488;2023-01-15T13:07:11;3.63;;;1.80;;
4391;SDS011;2210;51.938;8.488;2023-01-15T13:11:20;3.60;;;1.97;;
4391;SDS011;2210;51.938;8.488;2023-01-15T13:15:25;6.10;;;1.63;;
4391;SDS011;2210;51.938;8.488;2023-01-15T13:23:57;3.33;;;1.40;;
4391;SDS011;2210;51.938;8.488;2023-01-15T13:33:40;1.50;;;1.00;;
4391;SDS011;2210;51.938;8.488;2023-01-15T13:37:49;3.67;;;0.90;;
4391;SDS011;2210;51.938;8.488;2023-01-15T13:41:53;3.43;;;1.47;;
4391;SDS011;2210;51.938;8.488;2023-01-15T13:46:18;3.33;;;1.27;;
4391;SDS011;2210;51.938;8.488;2023-01-15T13:50:29;2.30;;;1.20;;
4391;SDS011;2210;51.938;8.488;2023-01-15T13:54:33;1.67;;;0.93;;
4391;SDS011;2210;51.938;8.488;2023-01-15T13:58:51;3.27;;;1.13;;
4391;SDS011;2210;51.938;8.488;2023-01-15T14:02:58;1.70;;;1.10;;
4391;SDS011;2210;51.938;8.488;2023-01-15T14:06:59;4.80;;;1.70;;
4391;SDS011;2210;51.938;8.488;2023-01-15T14:11:02;3.70;;;1.50;;
4391;SDS011;2210;51.938;8.488;2023-01-15T14:15:18;2.40;;;1.10;;
4391;SDS011;2210;51.938;8.488;2023-01-15T14:19:23;3.27;;;1.10;;
4391;SDS011;2210;51.938;8.488;2023-01-15T14:28:18;2.60;;;0.90;;
4391;SDS011;2210;51.938;8.488;2023-01-15T14:37:26;1.30;;;0.93;;
4391;SDS011;2210;51.938;8.488;2023-01-15T14:41:35;2.13;;;0.80;;
4391;SDS011;2210;51.938;8.488;2023-01-15T14:45:56;3.97;;;0.90;;
4391;SDS011;2210;51.938;8.488;2023-01-15T14:50:25;3.70;;;1.10;;
4391;SDS011;2210;51.938;8.488;2023-01-15T14:54:30;3.13;;;0.90;;
4391;SDS011;2210;51.938;8.488;2023-01-15T14:58:43;4.40;;;1.70;;
4391;SDS011;2210;51.938;8.488;2023-01-15T15:02:47;7.13;;;3.20;;
4391;SDS011;2210;51.938;8.488;2023-01-15T15:06:49;10.00;;;5.90;;
4391;SDS011;2210;51.938;8.488;2023-01-15T15:10:54;9.80;;;5.67;;
4391;SDS011;2210;51.938;8.488;2023-01-15T15:14:57;2.80;;;1.77;;
4391;SDS011;2210;51.938;8.488;2023-01-15T15:19:10;3.37;;;2.27;;
4391;SDS011;2210;51.938;8.488;2023-01-15T15:23:35;3.00;;;1.90;;
4391;SDS011;2210;51.938;8.488;2023-01-15T15:27:41;3.67;;;1.40;;
4391;SDS011;2210;51.938;8.488;2023-01-15T15:31:42;3.27;;;1.37;;
4391;SDS011;2210;51.938;8.488;2023-01-15T15:35:48;1.47;;;1.27;;
4391;SDS011;2210;51.938;8.488;2023-01-15T15:39:56;2.03;;;1.00;;
4391;SDS011;2210;51.938;8.488;2023-01-15T15:44:01;3.03;;;1.00;;
4391;SDS011;2210;51.938;8.488;2023-01-15T15:48:27;3.20;;;1.20;;
4391;SDS011;2210;51.938;8.488;2023-01-15T15:52:42;1.20;;;1.10;;
4391;SDS011;2210;51.938;8.488;2023-01-15T15:56:47;1.33;;;0.93;;
4391;SDS011;2210;51.938;8.488;2023-01-15T16:00:51;1.80;;;1.10;;
4391;SDS011;2210;51.938;8.488;2023-01-15T16:04:54;1.00;;;0.90;;
4391;SDS011;2210;51.938;8.488;2023-01-15T16:08:57;2.20;;;0.97;;
4391;SDS011;2210;51.938;8.488;2023-01-15T16:13:04;2.73;;;0.80;;
4391;SDS011;2210;51.938;8.488;2023-01-15T16:17:08;1.43;;;1.03;;
4391;SDS011;2210;51.938;8.488;2023-01-15T16:21:18;7.03;;;1.00;;
4391;SDS011;2210;51.938;8.488;2023-01-15T16:25:32;2.00;;;0.70;;
4391;SDS011;2210;51.938;8.488;2023-01-15T16:29:36;5.40;;;3.20;;
4391;SDS011;2210;51.938;8.488;2023-01-15T16:33:36;8.20;;;4.13;;
4391;SDS011;2210;51.938;8.488;2023-01-15T16:37:37;5.53;;;3.30;;
4391;SDS011;2210;51.938;8.488;2023-01-15T16:41:38;3.90;;;1.77;;
4391;SDS011;2210;51.938;8.488;2023-01-15T16:46:00;5.23;;;2.97;;
4391;SDS011;2210;51.938;8.488;2023-01-15T16:58:37;8.97;;;3.70;;
4391;SDS011;2210;51.938;8.488;2023-01-15T17:02:41;2.20;;;1.57;;
4391;SDS011;2210;51.938;8.488;2023-01-15T17:07:00;1.60;;;1.17;;
4391;SDS011;2210;51.938;8.488;2023-01-15T17:15:34;3.97;;;1.73;;
4391;SDS011;2210;51.938;8.488;2023-01-15T17:19:36;4.50;;;1.20;;
4391;SDS011;2210;51.938;8.488;2023-01-15T17:23:38;2.75;;;1.50;;
4391;SDS011;2210;51.938;8.488;2023-01-15T17:27:44;2.70;;;1.50;;
4391;SDS011;2210;51.938;8.488;2023-01-15T17:31:44;1.30;;;1.20;;
4391;SDS011;2210;51.938;8.488;2023-01-15T17:35:45;1.93;;;1.30;;
4391;SDS011;2210;51.938;8.488;2023-01-15T17:39:47;2.70;;;1.37;;
4391;SDS011;2210;51.938;8.488;2023-01-15T17:43:50;1.98;;;1.52;;
4391;SDS011;2210;51.938;8.488;2023-01-15T17:47:50;3.20;;;1.70;;
4391;SDS011;2210;51.938;8.488;2023-01-15T17:51:51;1.93;;;1.30;;
4391;SDS011;2210;51.938;8.488;2023-01-15T17:55:51;8.75;;;4.47;;
4391;SDS011;2210;51.938;8.488;2023-01-15T18:00:13;13.30;;;6.53;;
4391;SDS011;2210;51.938;8.488;2023-01-15T18:04:51;19.10;;;9.43;;
4391;SDS011;2210;51.938;8.488;2023-01-15T18:09:15;9.40;;;4.73;;
4391;SDS011;2210;51.938;8.488;2023-01-15T18:13:17;4.17;;;3.30;;
4391;SDS011;2210;51.938;8.488;2023-01-15T18:17:17;4.25;;;2.78;;
4391;SDS011;2210;51.938;8.488;2023-01-15T18:21:18;4.03;;;2.17;;
4391;SDS011;2210;51.938;8.488;2023-01-15T18:25:18;2.43;;;1.40;;
4391;SDS011;2210;51.938;8.488;2023-01-15T18:29:18;1.70;;;1.33;;
4391;SDS011;2210;51.938;8.488;2023-01-15T18:33:19;2.57;;;1.30;;
4391;SDS011;2210;51.938;8.488;2023-01-15T18:37:19;1.20;;;1.00;;
4391;SDS011;2210;51.938;8.488;2023-01-15T18:41:21;2.50;;;1.58;;
4391;SDS011;2210;51.938;8.488;2023-01-15T18:45:47;1.87;;;1.00;;
4391;SDS011;2210;51.938;8.488;2023-01-15T18:50:06;1.93;;;0.97;;
4391;SDS011;2210;51.938;8.488;2023-01-15T18:54:10;1.30;;;1.07;;
4391;SDS011;2210;51.938;8.488;2023-01-15T18:58:11;1.43;;;0.80;;
4391;SDS011;2210;51.938;8.488;2023-01-15T19:02:15;1.83;;;1.25;;
4391;SDS011;2210;51.938;8.488;2023-01-15T19:06:16;1.07;;;0.97;;
4391;SDS011;2210;51.938;8.488;2023-01-15T19:10:17;4.50;;;1.80;;
4391;SDS011;2210;51.938;8.488;2023-01-15T19:14:18;4.20;;;2.00;;
4391;SDS011;2210;51.938;8.488;2023-01-15T19:18:40;2.90;;;1.37;;
4391;SDS011;2210;51.938;8.488;2023-01-15T19:22:41;1.70;;;1.00;;
4391;SDS011;2210;51.938;8.488;2023-01-15T19:27:03;2.03;;;1.00;;
4391;SDS011;2210;51.938;8.488;2023-01-15T19:31:07;0.93;;;0.80;;
4391;SDS011;2210;51.938;8.488;2023-01-15T19:35:37;2.47;;;1.20;;
4391;SDS011;2210;51.938;8.488;2023-01-15T19:39:40;2.10;;;0.73;;
4391;SDS011;2210;51.938;8.488;2023-01-15T19:43:41;1.30;;;1.10;;
4391;SDS011;2210;51.938;8.488;2023-01-15T19:48:03;4.27;;;1.63;;
4391;SDS011;2210;51.938;8.488;2023-01-15T19:52:31;3.20;;;1.37;;
4391;SDS011;2210;51.938;8.488;2023-01-15T20:01:31;1.43;;;0.90;;
4391;SDS011;2210;51.938;8.488;2023-01-15T20:05:32;0.90;;;0.90;;
4391;SDS011;2210;51.938;8.488;2023-01-15T20:09:53;1.83;;;1.10;;
4391;SDS011;2210;51.938;8.488;2023-01-15T20:14:14;2.03;;;0.80;;
4391;SDS011;2210;51.938;8.488;2023-01-15T20:18:37;4.83;;;1.30;;
4391;SDS011;2210;51.938;8.488;2023-01-15T20:23:17;1.33;;;0.83;;
4391;SDS011;2210;51.938;8.488;2023-01-15T20:31:54;1.33;;;0.70;;
4391;SDS011;2210;51.938;8.488;2023-01-15T20:36:27;1.27;;;0.90;;
4391;SDS011;2210;51.938;8.488;2023-01-15T20:41:16;2.23;;;0.83;;
4391;SDS011;2210;51.938;8.488;2023-01-15T20:45:51;2.60;;;0.87;;
4391;SDS011;2210;51.938;8.488;2023-01-15T20:55:25;2.30;;;1.40;;
4391;SDS011;2210;51.938;8.488;2023-01-15T21:04:21;4.00;;;2.43;;
4391;SDS011;2210;51.938;8.488;2023-01-15T21:08:28;21.90;;;10.77;;
4391;SDS011;2210;51.938;8.488;2023-01-15T21:12:29;4.47;;;3.07;;
4391;SDS011;2210;51.938;8.488;2023-01-15T21:16:29;5.40;;;2.05;;
4391;SDS011;2210;51.938;8.488;2023-01-15T21:20:29;2.10;;;1.85;;
4391;SDS011;2210;51.938;8.488;2023-01-15T21:24:32;6.23;;;1.90;;
4391;SDS011;2210;51.938;8.488;2023-01-15T21:28:33;1.90;;;1.70;;
4391;SDS011;2210;51.938;8.488;2023-01-15T21:32:33;2.67;;;2.00;;
4391;SDS011;2210;51.938;8.488;2023-01-15T21:36:33;4.37;;;1.87;;
4391;SDS011;2210;51.938;8.488;2023-01-15T21:40:40;5.00;;;2.30;;
4391;SDS011;2210;51.938;8.488;2023-01-15T21:44:40;2.07;;;1.50;;
4391;SDS011;2210;51.938;8.488;2023-01-15T21:48:46;5.40;;;1.90;;
4391;SDS011;2210;51.938;8.488;2023-01-15T21:52:49;5.40;;;1.80;;
4391;SDS011;2210;51.938;8.488;2023-01-15T21:56:57;8.80;;;2.60;;
4391;SDS011;2210;51.938;8.488;2023-01-15T22:00:58;3.63;;;1.67;;
4391;SDS011;2210;51.938;8.488;2023-01-15T22:05:04;3.57;;;1.60;;
4391;SDS011;2210;51.938;8.488;2023-01-15T22:09:10;4.70;;;1.73;;
4391;SDS011;2210;51.938;8.488;2023-01-15T22:13:11;5.60;;;1.30;;
4391;SDS011;2210;51.938;8.488;2023-01-15T22:17:11;3.07;;;1.50;;
4391;SDS011;2210;51.938;8.488;2023-01-15T22:21:11;1.17;;;0.90;;
4391;SDS011;2210;51.938;8.488;2023-01-15T22:25:14;1.70;;;1.27;;
4391;SDS011;2210;51.938;8.488;2023-01-15T22:29:14;3.13;;;1.43;;
4391;SDS011;2210;51.938;8.488;2023-01-15T22:33:27;5.03;;;1.65;;
4391;SDS011;2210;51.938;8.488;2023-01-15T22:37:27;1.53;;;1.00;;
4391;SDS011;2210;51.938;8.488;2023-01-15T22:41:28;1.55;;;0.80;;
4391;SDS011;2210;51.938;8.488;2023-01-15T22:45:46;1.30;;;0.87;;
4391;SDS011;2210;51.938;8.488;2023-01-15T22:49:47;1.13;;;1.03;;
4391;SDS011;2210;51.938;8.488;2023-01-15T22:53:47;2.37;;;1.50;;
4391;SDS011;2210;51.938;8.488;2023-01-15T22:57:48;1.07;;;0.90;;
4391;SDS011;2210;51.938;8.488;2023-01-15T23:01:48;3.70;;;1.13;;
4391;SDS011;2210;51.938;8.488;2023-01-15T23:05:48;3.95;;;1.25;;
4391;SDS011;2210;51.938;8.488;2023-01-15T23:09:48;1.43;;;1.00;;
4391;SDS011;2210;51.938;8.488;2023-01-15T23:13:49;5.07;;;1.35;;
4391;SDS011;2210;51.938;8.488;2023-01-15T23:17:49;1.30;;;0.80;;
4391;SDS011;2210;51.938;8.488;2023-01-15T23:21:49;2.17;;;0.90;;
4391;SDS011;2210;51.938;8.488;2023-01-15T23:25:49;3.20;;;1.00;;
4391;SDS011;2210;51.938;8.488;2023-01-15T23:29:50;2.60;;;1.47;;
4391;SDS011;2210;51.938;8.488;2023-01-15T23:33:50;2.50;;;0.80;;
4391;SDS011;2210;51.938;8.488;2023-01-15T23:37:51;2.87;;;1.13;;
4391;SDS011;2210;51.938;8.488;2023-01-15T23:41:51;1.40;;;1.00;;
4391;SDS011;2210;51.938;8.488;2023-01-15T23:46:12;4.63;;;1.00;;
4391;SDS011;2210;51.938;8.488;2023-01-15T23:50:32;2.03;;;0.97;;
4391;SDS011;2210;51.938;8.488;2023-01-15T23:54:45;2.93;;;1.23;;
4391;SDS011;2210;51.938;8.488;2023-01-15T23:58:54;2.67;;;1.23;;
